createdAt,value
2018-04-16T00:00:51.639Z,1002.1
2018-04-16T00:01:53.360Z,1002.1
2018-04-16T00:02:55.082Z,1002.1
2018-04-16T00:03:56.815Z,1002.1
2018-04-16T00:04:58.561Z,1002.0
2018-04-16T00:06:00.331Z,1002.0
2018-04-16T00:07:02.068Z,1002.0
2018-04-16T00:08:03.789Z,1002.0
2018-04-16T00:09:05.762Z,1002.0
2018-04-16T00:10:07.608Z,1002.0
2018-04-16T00:11:09.312Z,1002.0
2018-04-16T00:12:11.039Z,1002.0
2018-04-16T00:13:12.760Z,1002.0
2018-04-16T00:14:14.698Z,1002.0
2018-04-16T00:15:16.390Z,1002.0
2018-04-16T00:16:18.314Z,1002.0
2018-04-16T00:17:20.076Z,1002.0
2018-04-16T00:18:21.848Z,1002.0
2018-04-16T00:19:23.650Z,1002.0
2018-04-16T00:20:25.438Z,1002.0
2018-04-16T00:21:27.111Z,1002.0
2018-04-16T00:22:28.825Z,1002.0
2018-04-16T00:23:30.578Z,1002.0
2018-04-16T00:24:32.587Z,1001.9
2018-04-16T00:25:34.345Z,1001.9
2018-04-16T00:26:36.040Z,1001.9
2018-04-16T00:27:37.803Z,1002.0
2018-04-16T00:28:39.547Z,1002.0
2018-04-16T00:29:41.253Z,1002.0
2018-04-16T00:30:43.098Z,1002.0
2018-04-16T00:31:44.839Z,1002.0
2018-04-16T00:32:46.684Z,1002.0
2018-04-16T00:33:48.427Z,1002.0
2018-04-16T00:34:50.706Z,1002.0
2018-04-16T00:35:52.425Z,1002.0
2018-04-16T00:36:54.149Z,1002.0
2018-04-16T00:37:55.816Z,1002.0
2018-04-16T00:38:57.503Z,1002.0
2018-04-16T00:39:59.211Z,1001.9
2018-04-16T00:41:00.889Z,1002.0
2018-04-16T00:42:02.658Z,1002.0
2018-04-16T00:43:04.402Z,1002.0
2018-04-16T00:44:06.120Z,1002.0
2018-04-16T00:45:07.864Z,1002.0
2018-04-16T00:46:09.605Z,1002.0
2018-04-16T00:47:11.743Z,1002.0
2018-04-16T00:48:13.519Z,1002.0
2018-04-16T00:49:15.447Z,1002.0
2018-04-16T00:50:17.256Z,1002.0
2018-04-16T00:51:19.056Z,1002.0
2018-04-16T00:52:20.833Z,1002.0
2018-04-16T00:53:22.707Z,1002.0
2018-04-16T00:54:24.736Z,1002.0
2018-04-16T00:55:26.478Z,1002.0
2018-04-16T00:56:28.236Z,1002.0
2018-04-16T00:57:30.204Z,1002.0
2018-04-16T00:58:31.975Z,1002.0
2018-04-16T00:59:33.865Z,1002.0
2018-04-16T01:00:35.756Z,1002.1
2018-04-16T01:01:37.525Z,1002.1
2018-04-16T01:02:39.270Z,1002.0
2018-04-16T01:03:41.073Z,1002.0
2018-04-16T01:04:43.674Z,1002.0
2018-04-16T01:05:45.512Z,1002.1
2018-04-16T01:06:47.450Z,1002.1
2018-04-16T01:07:49.183Z,1002.1
2018-04-16T01:08:51.100Z,1002.1
2018-04-16T01:09:53.161Z,1002.2
2018-04-16T01:10:54.842Z,1002.2
2018-04-16T01:11:56.525Z,1002.2
2018-04-16T01:12:58.527Z,1002.2
2018-04-16T01:14:00.293Z,1002.2
2018-04-16T01:15:02.043Z,1002.2
2018-04-16T01:16:04.140Z,1002.1
2018-04-16T01:17:05.907Z,1002.2
2018-04-16T01:18:07.611Z,1002.2
2018-04-16T01:19:09.543Z,1002.2
2018-04-16T01:20:11.433Z,1002.2
2018-04-16T01:21:13.226Z,1002.2
2018-04-16T01:22:14.947Z,1002.1
2018-04-16T01:23:16.712Z,1002.1
2018-04-16T01:24:18.453Z,1002.2
2018-04-16T01:25:20.374Z,1002.2
2018-04-16T01:26:22.229Z,1002.2
2018-04-16T01:27:23.913Z,1002.2
2018-04-16T01:28:25.678Z,1002.2
2018-04-16T01:29:27.398Z,1002.2
2018-04-16T01:30:29.233Z,1002.3
2018-04-16T01:31:30.919Z,1002.3
2018-04-16T01:32:32.680Z,1002.3
2018-04-16T01:33:34.331Z,1002.3
2018-04-16T01:34:36.047Z,1002.3
2018-04-16T01:35:38.043Z,1002.3
2018-04-16T01:36:39.769Z,1002.3
2018-04-16T01:37:41.506Z,1002.3
2018-04-16T01:38:43.257Z,1002.3
2018-04-16T01:39:44.971Z,1002.3
2018-04-16T01:40:46.628Z,1002.3
2018-04-16T01:41:48.905Z,1002.4
2018-04-16T01:42:50.521Z,1002.3
2018-04-16T01:43:52.363Z,1002.3
2018-04-16T01:44:54.097Z,1002.4
2018-04-16T01:45:55.839Z,1002.3
2018-04-16T01:46:57.724Z,1002.4
2018-04-16T01:47:59.454Z,1002.4
2018-04-16T01:49:01.142Z,1002.3
2018-04-16T01:50:03.112Z,1002.4
2018-04-16T01:51:04.826Z,1002.3
2018-04-16T01:52:06.517Z,1002.3
2018-04-16T01:53:08.474Z,1002.3
2018-04-16T01:54:10.094Z,1002.3
2018-04-16T01:55:11.824Z,1002.3
2018-04-16T01:56:13.502Z,1002.3
2018-04-16T01:57:15.400Z,1002.3
2018-04-16T01:58:17.345Z,1002.3
2018-04-16T01:59:19.124Z,1002.3
2018-04-16T02:00:20.827Z,1002.2
2018-04-16T02:01:22.553Z,1002.3
2018-04-16T02:02:24.308Z,1002.3
2018-04-16T02:03:26.138Z,1002.2
2018-04-16T02:04:27.895Z,1002.2
2018-04-16T02:05:29.900Z,1002.2
2018-04-16T02:06:31.679Z,1002.2
2018-04-16T02:07:33.407Z,1002.2
2018-04-16T02:08:35.137Z,1002.2
2018-04-16T02:09:36.999Z,1002.2
2018-04-16T02:10:38.744Z,1002.2
2018-04-16T02:11:40.517Z,1002.1
2018-04-16T02:12:42.362Z,1002.2
2018-04-16T02:13:44.308Z,1002.2
2018-04-16T02:14:46.055Z,1002.1
2018-04-16T02:15:47.806Z,1002.1
2018-04-16T02:16:49.554Z,1002.1
2018-04-16T02:17:51.478Z,1002.1
2018-04-16T02:18:53.215Z,1002.1
2018-04-16T02:19:54.896Z,1002.1
2018-04-16T02:20:56.825Z,1002.2
2018-04-16T02:21:58.825Z,1002.2
2018-04-16T02:23:00.559Z,1002.2
2018-04-16T02:24:02.554Z,1002.1
2018-04-16T02:25:04.485Z,1002.2
2018-04-16T02:26:06.157Z,1002.2
2018-04-16T02:27:08.053Z,1002.2
2018-04-16T02:28:09.976Z,1002.1
2018-04-16T02:29:11.848Z,1002.2
2018-04-16T02:30:13.769Z,1002.1
2018-04-16T02:31:15.442Z,1002.2
2018-04-16T02:32:17.434Z,1002.2
2018-04-16T02:33:19.166Z,1002.2
2018-04-16T02:34:20.926Z,1002.2
2018-04-16T02:35:22.685Z,1002.2
2018-04-16T02:36:24.448Z,1002.2
2018-04-16T02:37:26.431Z,1002.2
2018-04-16T02:38:28.070Z,1002.3
2018-04-16T02:39:30.008Z,1002.3
2018-04-16T02:40:31.707Z,1002.2
2018-04-16T02:41:33.584Z,1002.3
2018-04-16T02:42:35.316Z,1002.3
2018-04-16T02:43:37.219Z,1002.3
2018-04-16T02:44:38.988Z,1002.4
2018-04-16T02:45:40.814Z,1002.4
2018-04-16T02:46:42.650Z,1002.4
2018-04-16T02:47:44.326Z,1002.4
2018-04-16T02:48:46.058Z,1002.4
2018-04-16T02:49:47.838Z,1002.4
2018-04-16T02:50:49.553Z,1002.4
2018-04-16T02:51:51.275Z,1002.4
2018-04-16T02:52:52.992Z,1002.4
2018-04-16T02:53:54.892Z,1002.4
2018-04-16T02:54:56.616Z,1002.4
2018-04-16T02:55:58.644Z,1002.4
2018-04-16T02:57:00.357Z,1002.4
2018-04-16T02:58:02.138Z,1002.4
2018-04-16T02:59:03.900Z,1002.5
2018-04-16T03:00:05.611Z,1002.5
2018-04-16T03:01:07.371Z,1002.5
2018-04-16T03:02:09.157Z,1002.5
2018-04-16T03:03:10.919Z,1002.5
2018-04-16T03:04:12.703Z,1002.5
2018-04-16T03:05:14.712Z,1002.5
2018-04-16T03:06:16.463Z,1002.5
2018-04-16T03:07:18.234Z,1002.5
2018-04-16T03:08:20.376Z,1002.5
2018-04-16T03:09:22.091Z,1002.5
2018-04-16T03:10:23.985Z,1002.5
2018-04-16T03:11:25.818Z,1002.5
2018-04-16T03:12:27.829Z,1002.5
2018-04-16T03:13:29.887Z,1002.5
2018-04-16T03:14:31.617Z,1002.5
2018-04-16T03:15:33.386Z,1002.5
2018-04-16T03:16:35.097Z,1002.5
2018-04-16T03:17:36.793Z,1002.5
2018-04-16T03:18:38.555Z,1002.5
2018-04-16T03:19:40.495Z,1002.5
2018-04-16T03:20:42.176Z,1002.5
2018-04-16T03:21:43.934Z,1002.5
2018-04-16T03:22:45.797Z,1002.5
2018-04-16T03:23:47.705Z,1002.5
2018-04-16T03:24:49.496Z,1002.6
2018-04-16T03:25:51.276Z,1002.6
2018-04-16T03:26:53.002Z,1002.5
2018-04-16T03:27:54.792Z,1002.6
2018-04-16T03:28:56.410Z,1002.6
2018-04-16T03:29:58.180Z,1002.6
2018-04-16T03:30:59.934Z,1002.6
2018-04-16T03:32:01.708Z,1002.6
2018-04-16T03:33:03.453Z,1002.5
2018-04-16T03:34:05.503Z,1002.6
2018-04-16T03:35:07.603Z,1002.6
2018-04-16T03:36:09.599Z,1002.6
2018-04-16T03:37:11.380Z,1002.6
2018-04-16T03:38:13.486Z,1002.6
2018-04-16T03:39:15.187Z,1002.6
2018-04-16T03:40:16.984Z,1002.6
2018-04-16T03:41:19.849Z,1002.6
2018-04-16T03:42:21.515Z,1002.6
2018-04-16T03:43:23.531Z,1002.6
2018-04-16T03:44:25.230Z,1002.6
2018-04-16T03:45:26.941Z,1002.6
2018-04-16T03:46:28.756Z,1002.6
2018-04-16T03:47:30.505Z,1002.6
2018-04-16T03:48:32.226Z,1002.6
2018-04-16T03:49:34.210Z,1002.6
2018-04-16T03:50:35.966Z,1002.6
2018-04-16T03:51:37.755Z,1002.7
2018-04-16T03:52:39.551Z,1002.7
2018-04-16T03:53:41.491Z,1002.7
2018-04-16T03:54:43.443Z,1002.7
2018-04-16T03:55:45.366Z,1002.7
2018-04-16T03:56:47.316Z,1002.7
2018-04-16T03:57:49.050Z,1002.6
2018-04-16T03:58:51.015Z,1002.7
2018-04-16T03:59:52.757Z,1002.7
2018-04-16T04:00:54.485Z,1002.7
2018-04-16T04:01:56.293Z,1002.7
2018-04-16T04:02:58.053Z,1002.7
2018-04-16T04:03:59.858Z,1002.7
2018-04-16T04:05:01.528Z,1002.7
2018-04-16T04:06:03.502Z,1002.7
2018-04-16T04:07:05.201Z,1002.7
2018-04-16T04:08:07.300Z,1002.8
2018-04-16T04:09:09.293Z,1002.8
2018-04-16T04:10:11.013Z,1002.8
2018-04-16T04:11:12.942Z,1002.7
2018-04-16T04:12:14.896Z,1002.8
2018-04-16T04:13:16.685Z,1002.8
2018-04-16T04:14:18.483Z,1002.8
2018-04-16T04:15:20.435Z,1002.8
2018-04-16T04:16:22.257Z,1002.8
2018-04-16T04:17:23.993Z,1002.9
2018-04-16T04:18:25.887Z,1002.9
2018-04-16T04:19:27.688Z,1002.9
2018-04-16T04:20:29.620Z,1002.9
2018-04-16T04:21:31.637Z,1003.0
2018-04-16T04:22:33.462Z,1003.0
2018-04-16T04:23:35.380Z,1003.0
2018-04-16T04:24:37.167Z,1003.0
2018-04-16T04:25:38.988Z,1003.1
2018-04-16T04:26:41.009Z,1003.1
2018-04-16T04:27:42.735Z,1003.2
2018-04-16T04:28:44.753Z,1003.2
2018-04-16T04:29:46.544Z,1003.2
2018-04-16T04:30:48.608Z,1003.2
2018-04-16T04:31:50.467Z,1003.2
2018-04-16T04:32:52.189Z,1003.2
2018-04-16T04:33:53.927Z,1003.2
2018-04-16T04:34:55.870Z,1003.2
2018-04-16T04:35:57.836Z,1003.2
2018-04-16T04:37:00.013Z,1003.2
2018-04-16T04:38:01.980Z,1003.2
2018-04-16T04:39:03.624Z,1003.2
2018-04-16T04:40:05.669Z,1003.2
2018-04-16T04:41:07.377Z,1003.2
2018-04-16T04:42:09.121Z,1003.2
2018-04-16T04:43:11.035Z,1003.2
2018-04-16T04:44:12.950Z,1003.2
2018-04-16T04:45:14.683Z,1003.2
2018-04-16T04:46:16.367Z,1003.3
2018-04-16T04:47:18.441Z,1003.2
2018-04-16T04:48:20.354Z,1003.2
2018-04-16T04:49:22.316Z,1003.2
2018-04-16T04:50:24.037Z,1003.2
2018-04-16T04:51:25.711Z,1003.3
2018-04-16T04:52:27.473Z,1003.3
2018-04-16T04:53:29.214Z,1003.3
2018-04-16T04:54:30.949Z,1003.3
2018-04-16T04:55:32.692Z,1003.3
2018-04-16T04:56:34.402Z,1003.3
2018-04-16T04:57:36.100Z,1003.3
2018-04-16T04:58:37.826Z,1003.3
2018-04-16T04:59:39.603Z,1003.4
2018-04-16T05:00:41.364Z,1003.4
2018-04-16T05:01:43.308Z,1003.4
2018-04-16T05:02:45.023Z,1003.4
2018-04-16T05:03:46.777Z,1003.4
2018-04-16T05:04:48.523Z,1003.4
2018-04-16T05:05:50.265Z,1003.4
2018-04-16T05:06:52.179Z,1003.5
2018-04-16T05:07:53.938Z,1003.4
2018-04-16T05:08:55.649Z,1003.4
2018-04-16T05:09:57.570Z,1003.4
2018-04-16T05:10:59.256Z,1003.5
2018-04-16T05:12:01.148Z,1003.5
2018-04-16T05:13:03.138Z,1003.5
2018-04-16T05:14:05.002Z,1003.5
2018-04-16T05:15:06.760Z,1003.6
2018-04-16T05:16:08.488Z,1003.6
2018-04-16T05:17:10.246Z,1003.6
2018-04-16T05:18:11.959Z,1003.6
2018-04-16T05:19:13.925Z,1003.6
2018-04-16T05:20:15.605Z,1003.6
2018-04-16T05:21:17.355Z,1003.6
2018-04-16T05:22:19.592Z,1003.7
2018-04-16T05:23:21.613Z,1003.7
2018-04-16T05:24:23.364Z,1003.7
2018-04-16T05:25:25.049Z,1003.8
2018-04-16T05:26:26.800Z,1003.8
2018-04-16T05:27:28.571Z,1003.8
2018-04-16T05:28:30.265Z,1003.8
2018-04-16T05:29:32.013Z,1003.8
2018-04-16T05:30:33.685Z,1003.8
2018-04-16T05:31:35.417Z,1003.8
2018-04-16T05:32:37.186Z,1003.8
2018-04-16T05:33:38.881Z,1003.9
2018-04-16T05:34:40.706Z,1003.8
2018-04-16T05:35:43.316Z,1003.9
2018-04-16T05:36:45.067Z,1003.9
2018-04-16T05:37:46.803Z,1003.9
2018-04-16T05:38:48.553Z,1003.9
2018-04-16T05:39:50.248Z,1004.0
2018-04-16T05:40:51.999Z,1004.0
2018-04-16T05:41:53.907Z,1004.0
2018-04-16T05:42:55.647Z,1004.1
2018-04-16T05:43:57.412Z,1004.1
2018-04-16T05:44:59.240Z,1004.1
2018-04-16T05:46:00.887Z,1004.1
2018-04-16T05:47:02.605Z,1004.1
2018-04-16T05:48:04.373Z,1004.1
2018-04-16T05:49:06.088Z,1004.1
2018-04-16T05:50:07.807Z,1004.1
2018-04-16T05:51:09.633Z,1004.2
2018-04-16T05:52:11.452Z,1004.2
2018-04-16T05:53:14.045Z,1004.2
2018-04-16T05:54:15.734Z,1004.2
2018-04-16T05:55:17.460Z,1004.2
2018-04-16T05:56:19.302Z,1004.3
2018-04-16T05:57:21.030Z,1004.2
2018-04-16T05:58:22.737Z,1004.3
2018-04-16T05:59:24.439Z,1004.3
2018-04-16T06:00:26.197Z,1004.3
2018-04-16T06:01:27.948Z,1004.3
2018-04-16T06:02:29.718Z,1004.4
2018-04-16T06:03:31.458Z,1004.4
2018-04-16T06:04:33.183Z,1004.4
2018-04-16T06:05:34.859Z,1004.4
2018-04-16T06:06:36.825Z,1004.4
2018-04-16T06:07:38.497Z,1004.4
2018-04-16T06:08:40.321Z,1004.4
2018-04-16T06:09:42.252Z,1004.4
2018-04-16T06:10:44.007Z,1004.5
2018-04-16T06:11:45.985Z,1004.5
2018-04-16T06:12:47.765Z,1004.4
2018-04-16T06:13:49.469Z,1004.4
2018-04-16T06:14:51.240Z,1004.5
2018-04-16T06:15:52.980Z,1004.4
2018-04-16T06:16:54.776Z,1004.4
2018-04-16T06:17:56.580Z,1004.4
2018-04-16T06:18:58.385Z,1004.5
2018-04-16T06:20:00.202Z,1004.5
2018-04-16T06:21:01.945Z,1004.5
2018-04-16T06:22:03.798Z,1004.5
2018-04-16T06:23:05.487Z,1004.6
2018-04-16T06:24:07.286Z,1004.6
2018-04-16T06:25:09.036Z,1004.6
2018-04-16T06:26:10.756Z,1004.6
2018-04-16T06:27:12.548Z,1004.7
2018-04-16T06:28:14.308Z,1004.7
2018-04-16T06:29:16.029Z,1004.8
2018-04-16T06:30:18.060Z,1004.8
2018-04-16T06:31:19.853Z,1004.8
2018-04-16T06:32:21.662Z,1004.8
2018-04-16T06:33:23.556Z,1004.8
2018-04-16T06:34:25.259Z,1004.8
2018-04-16T06:35:27.123Z,1004.8
2018-04-16T06:36:28.889Z,1004.9
2018-04-16T06:37:30.571Z,1004.9
2018-04-16T06:38:32.290Z,1004.9
2018-04-16T06:39:34.000Z,1004.9
2018-04-16T06:40:35.764Z,1004.9
2018-04-16T06:41:37.514Z,1005.0
2018-04-16T06:42:39.268Z,1004.9
2018-04-16T06:43:41.031Z,1005.0
2018-04-16T06:44:42.809Z,1005.0
2018-04-16T06:45:44.482Z,1005.0
2018-04-16T06:46:46.227Z,1005.1
2018-04-16T06:47:48.076Z,1005.1
2018-04-16T06:48:49.819Z,1005.2
2018-04-16T06:49:51.783Z,1005.1
2018-04-16T06:50:53.670Z,1005.2
2018-04-16T06:51:55.368Z,1005.2
2018-04-16T06:52:57.210Z,1005.2
2018-04-16T06:53:59.100Z,1005.2
2018-04-16T06:55:00.851Z,1005.2
2018-04-16T06:56:02.634Z,1005.2
2018-04-16T06:57:04.341Z,1005.1
2018-04-16T06:58:06.126Z,1005.1
2018-04-16T06:59:07.917Z,1005.2
2018-04-16T07:00:09.657Z,1005.3
2018-04-16T07:01:11.260Z,1005.2
2018-04-16T07:02:13.102Z,1005.2
2018-04-16T07:03:14.899Z,1005.3
2018-04-16T07:04:16.605Z,1005.2
2018-04-16T07:05:18.306Z,1005.3
2018-04-16T07:06:20.035Z,1005.2
2018-04-16T07:07:21.837Z,1005.3
2018-04-16T07:08:23.600Z,1005.4
2018-04-16T07:09:25.326Z,1005.3
2018-04-16T07:10:27.230Z,1005.3
2018-04-16T07:11:29.008Z,1005.3
2018-04-16T07:12:30.787Z,1005.3
2018-04-16T07:13:32.466Z,1005.3
2018-04-16T07:14:34.215Z,1005.4
2018-04-16T07:15:35.991Z,1005.4
2018-04-16T07:16:37.688Z,1005.4
2018-04-16T07:17:39.482Z,1005.4
2018-04-16T07:18:41.177Z,1005.4
2018-04-16T07:19:42.932Z,1005.5
2018-04-16T07:20:44.709Z,1005.4
2018-04-16T07:21:46.492Z,1005.4
2018-04-16T07:22:48.303Z,1005.4
2018-04-16T07:23:50.168Z,1005.4
2018-04-16T07:24:52.014Z,1005.4
2018-04-16T07:25:53.808Z,1005.4
2018-04-16T07:26:55.554Z,1005.4
2018-04-16T07:27:57.293Z,1005.4
2018-04-16T07:28:59.075Z,1005.4
2018-04-16T07:30:00.765Z,1005.4
2018-04-16T07:31:02.538Z,1005.4
2018-04-16T07:32:04.248Z,1005.4
2018-04-16T07:33:05.966Z,1005.5
2018-04-16T07:34:07.676Z,1005.4
2018-04-16T07:35:09.443Z,1005.5
2018-04-16T07:36:11.187Z,1005.5
2018-04-16T07:37:12.932Z,1005.8
2018-04-16T07:38:14.595Z,1005.5
2018-04-16T07:39:16.306Z,1005.7
2018-04-16T07:40:17.986Z,1005.6
2018-04-16T07:41:19.761Z,1005.8
2018-04-16T07:42:21.483Z,1005.9
2018-04-16T07:43:23.404Z,1006.0
2018-04-16T07:44:25.114Z,1006.0
2018-04-16T07:45:26.937Z,1006.1
2018-04-16T07:46:28.827Z,1006.1
2018-04-16T07:47:30.629Z,1005.9
2018-04-16T07:48:32.305Z,1006.2
2018-04-16T07:49:34.050Z,1006.3
2018-04-16T07:50:35.813Z,1005.9
2018-04-16T07:51:37.578Z,1006.3
2018-04-16T07:52:39.302Z,1006.2
2018-04-16T07:53:41.063Z,1005.9
2018-04-16T07:54:42.758Z,1006.1
2018-04-16T07:55:44.583Z,1006.1
2018-04-16T07:56:46.271Z,1006.4
2018-04-16T07:57:48.065Z,1006.1
2018-04-16T07:58:49.890Z,1006.1
2018-04-16T07:59:51.667Z,1006.2
2018-04-16T08:00:53.422Z,1006.4
2018-04-16T08:01:55.203Z,1006.3
2018-04-16T08:02:56.970Z,1006.3
2018-04-16T08:03:58.719Z,1006.3
2018-04-16T08:05:00.508Z,1006.3
2018-04-16T08:06:02.183Z,1006.3
2018-04-16T08:07:03.958Z,1006.4
2018-04-16T08:08:05.719Z,1006.4
2018-04-16T08:09:07.433Z,1006.4
2018-04-16T08:10:09.143Z,1006.3
2018-04-16T08:11:10.791Z,1006.3
2018-04-16T08:12:12.592Z,1006.4
2018-04-16T08:13:14.322Z,1006.4
2018-04-16T08:14:16.097Z,1006.4
2018-04-16T08:15:18.047Z,1006.1
2018-04-16T08:16:19.797Z,1006.0
2018-04-16T08:17:21.584Z,1006.0
2018-04-16T08:18:23.328Z,1006.0
2018-04-16T08:19:25.089Z,1006.0
2018-04-16T08:20:26.878Z,1006.0
2018-04-16T08:21:28.688Z,1006.0
2018-04-16T08:22:30.413Z,1006.0
2018-04-16T08:23:32.187Z,1006.0
2018-04-16T08:24:33.926Z,1006.0
2018-04-16T08:25:35.712Z,1006.0
2018-04-16T08:26:37.477Z,1005.9
2018-04-16T08:27:39.231Z,1005.9
2018-04-16T08:28:40.991Z,1005.9
2018-04-16T08:29:42.644Z,1005.9
2018-04-16T08:30:44.404Z,1006.0
2018-04-16T08:31:46.159Z,1005.9
2018-04-16T08:32:47.899Z,1005.9
2018-04-16T08:33:49.649Z,1006.0
2018-04-16T08:34:51.465Z,1005.9
2018-04-16T08:35:53.216Z,1006.0
2018-04-16T08:36:54.992Z,1005.9
2018-04-16T08:37:56.763Z,1005.9
2018-04-16T08:38:58.423Z,1006.0
2018-04-16T08:40:00.101Z,1005.9
2018-04-16T08:41:01.864Z,1006.0
2018-04-16T08:42:03.564Z,1006.0
2018-04-16T08:43:05.322Z,1006.0
2018-04-16T08:44:07.084Z,1006.1
2018-04-16T08:45:08.818Z,1006.0
2018-04-16T08:46:10.605Z,1006.0
2018-04-16T08:47:12.365Z,1006.0
2018-04-16T08:48:14.135Z,1006.0
2018-04-16T08:49:15.851Z,1006.1
2018-04-16T08:50:17.624Z,1006.0
2018-04-16T08:51:19.395Z,1006.1
2018-04-16T08:52:21.166Z,1006.1
2018-04-16T08:53:22.918Z,1006.1
2018-04-16T08:54:24.584Z,1006.1
2018-04-16T08:55:26.358Z,1006.0
2018-04-16T08:56:28.065Z,1006.0
2018-04-16T08:57:29.803Z,1006.0
2018-04-16T08:58:31.488Z,1007.0
2018-04-16T08:59:33.322Z,1007.2
2018-04-16T09:00:35.155Z,1007.2
2018-04-16T09:01:36.922Z,1007.2
2018-04-16T09:02:38.691Z,1007.2
2018-04-16T09:03:40.435Z,1007.2
2018-04-16T09:04:43.016Z,1007.3
2018-04-16T09:05:44.707Z,1007.3
2018-04-16T09:06:46.430Z,1007.2
2018-04-16T09:07:48.252Z,1007.2
2018-04-16T09:08:49.937Z,1007.0
2018-04-16T09:09:51.697Z,1007.3
2018-04-16T09:10:53.461Z,1006.5
2018-04-16T09:11:55.160Z,1006.9
2018-04-16T09:12:56.939Z,1006.6
2018-04-16T09:13:58.718Z,1006.5
2018-04-16T09:15:00.452Z,1006.8
2018-04-16T09:16:02.257Z,1006.5
2018-04-16T09:17:04.043Z,1006.5
2018-04-16T09:18:05.812Z,1006.3
2018-04-16T09:19:07.534Z,1006.3
2018-04-16T09:20:09.271Z,1006.3
2018-04-16T09:21:11.086Z,1006.1
2018-04-16T09:22:12.843Z,1006.3
2018-04-16T09:23:14.619Z,1006.4
2018-04-16T09:24:16.335Z,1006.3
2018-04-16T09:25:18.108Z,1006.7
2018-04-16T09:26:19.913Z,1006.3
2018-04-16T09:27:21.661Z,1006.3
2018-04-16T09:28:23.337Z,1006.2
2018-04-16T09:29:25.029Z,1006.2
2018-04-16T09:30:26.798Z,1006.8
2018-04-16T09:31:28.557Z,1006.7
2018-04-16T09:32:30.312Z,1006.4
2018-04-16T09:33:32.062Z,1006.8
2018-04-16T09:34:33.825Z,1006.3
2018-04-16T09:35:35.573Z,1006.2
2018-04-16T09:36:37.332Z,1006.1
2018-04-16T09:37:39.100Z,1006.8
2018-04-16T09:38:40.869Z,1006.8
2018-04-16T09:39:42.679Z,1006.6
2018-04-16T09:40:44.427Z,1006.3
2018-04-16T09:41:46.112Z,1006.2
2018-04-16T09:42:47.852Z,1006.2
2018-04-16T09:43:49.591Z,1006.2
2018-04-16T09:44:51.376Z,1006.2
2018-04-16T09:45:53.221Z,1006.7
2018-04-16T09:46:55.000Z,1006.3
2018-04-16T09:47:56.783Z,1006.2
2018-04-16T09:48:58.600Z,1006.9
2018-04-16T09:50:00.345Z,1006.9
2018-04-16T09:51:02.165Z,1006.7
2018-04-16T09:52:04.022Z,1006.6
2018-04-16T09:53:05.895Z,1006.4
2018-04-16T09:54:07.630Z,1006.6
2018-04-16T09:55:09.362Z,1006.8
2018-04-16T09:56:11.168Z,1006.5
2018-04-16T09:57:13.751Z,1006.5
2018-04-16T09:58:15.512Z,1006.5
2018-04-16T09:59:17.249Z,1006.4
2018-04-16T10:00:19.031Z,1006.3
2018-04-16T10:01:20.747Z,1006.3
2018-04-16T10:02:22.527Z,1006.2
2018-04-16T10:03:24.264Z,1006.2
2018-04-16T10:04:25.949Z,1006.2
2018-04-16T10:05:27.740Z,1006.2
2018-04-16T10:06:29.473Z,1006.2
2018-04-16T10:07:31.152Z,1006.2
2018-04-16T10:08:32.833Z,1006.2
2018-04-16T10:09:34.559Z,1006.5
2018-04-16T10:10:36.265Z,1006.4
2018-04-16T10:11:37.988Z,1006.6
2018-04-16T10:12:39.788Z,1006.5
2018-04-16T10:13:41.575Z,1006.9
2018-04-16T10:14:43.315Z,1006.7
2018-04-16T10:15:45.031Z,1006.5
2018-04-16T10:16:46.806Z,1006.5
2018-04-16T10:17:48.545Z,1006.4
2018-04-16T10:18:50.304Z,1006.4
2018-04-16T10:19:52.100Z,1006.4
2018-04-16T10:20:53.774Z,1006.4
2018-04-16T10:21:55.568Z,1006.5
2018-04-16T10:22:57.372Z,1006.5
2018-04-16T10:23:59.186Z,1006.5
2018-04-16T10:25:00.990Z,1006.6
2018-04-16T10:26:02.839Z,1006.7
2018-04-16T10:27:04.539Z,1006.7
2018-04-16T10:28:06.233Z,1006.8
2018-04-16T10:29:07.969Z,1006.7
2018-04-16T10:30:09.840Z,1006.5
2018-04-16T10:31:11.663Z,1006.6
2018-04-16T10:32:13.400Z,1006.7
2018-04-16T10:33:15.102Z,1006.6
2018-04-16T10:34:16.788Z,1006.6
2018-04-16T10:35:18.571Z,1006.6
2018-04-16T10:36:20.328Z,1006.6
2018-04-16T10:37:22.082Z,1006.6
2018-04-16T10:38:23.790Z,1006.6
2018-04-16T10:39:25.544Z,1006.6
2018-04-16T10:40:27.248Z,1006.4
2018-04-16T10:41:29.039Z,1006.5
2018-04-16T10:42:30.775Z,1006.6
2018-04-16T10:43:32.458Z,1006.7
2018-04-16T10:44:34.156Z,1006.8
2018-04-16T10:45:35.944Z,1006.7
2018-04-16T10:46:37.667Z,1006.6
2018-04-16T10:47:39.395Z,1006.6
2018-04-16T10:48:40.905Z,1006.6
2018-04-16T10:49:43.522Z,1006.6
2018-04-16T10:50:45.406Z,1006.6
2018-04-16T10:51:47.042Z,1006.6
2018-04-16T10:52:48.917Z,1006.6
2018-04-16T10:53:50.648Z,1006.6
2018-04-16T10:54:52.473Z,1006.5
2018-04-16T10:55:54.249Z,1006.4
2018-04-16T10:56:56.031Z,1006.5
2018-04-16T10:57:57.843Z,1006.5
2018-04-16T10:58:59.531Z,1006.5
2018-04-16T11:00:01.251Z,1006.5
2018-04-16T11:01:02.946Z,1006.5
2018-04-16T11:02:04.643Z,1006.5
2018-04-16T11:03:06.481Z,1006.5
2018-04-16T11:04:08.260Z,1006.6
2018-04-16T11:05:10.109Z,1006.6
2018-04-16T11:06:11.968Z,1006.7
2018-04-16T11:07:13.787Z,1006.6
2018-04-16T11:08:15.721Z,1006.6
2018-04-16T11:09:17.400Z,1006.7
2018-04-16T11:10:19.135Z,1006.7
2018-04-16T11:11:20.909Z,1006.6
2018-04-16T11:12:22.587Z,1006.6
2018-04-16T11:13:24.478Z,1006.6
2018-04-16T11:14:26.305Z,1006.6
2018-04-16T11:15:28.050Z,1006.4
2018-04-16T11:16:29.751Z,1006.5
2018-04-16T11:17:31.485Z,1006.4
2018-04-16T11:18:33.223Z,1006.5
2018-04-16T11:19:35.065Z,1006.6
2018-04-16T11:20:36.823Z,1006.5
2018-04-16T11:21:38.605Z,1006.7
2018-04-16T11:22:40.341Z,1006.6
2018-04-16T11:23:42.054Z,1006.5
2018-04-16T11:24:43.833Z,1006.7
2018-04-16T11:25:45.575Z,1006.7
2018-04-16T11:26:47.232Z,1006.6
2018-04-16T11:27:48.973Z,1006.6
2018-04-16T11:28:50.783Z,1006.6
2018-04-16T11:29:52.514Z,1006.8
2018-04-16T11:30:54.274Z,1006.8
2018-04-16T11:31:56.010Z,1006.8
2018-04-16T11:32:57.757Z,1006.9
2018-04-16T11:33:59.413Z,1006.9
2018-04-16T11:35:01.220Z,1006.8
2018-04-16T11:36:02.953Z,1006.5
2018-04-16T11:37:04.751Z,1006.6
2018-04-16T11:38:06.574Z,1006.8
2018-04-16T11:39:08.255Z,1006.8
2018-04-16T11:40:10.008Z,1006.6
2018-04-16T11:41:11.752Z,1006.5
2018-04-16T11:42:13.452Z,1006.6
2018-04-16T11:43:15.136Z,1006.5
2018-04-16T11:44:16.923Z,1006.8
2018-04-16T11:45:18.642Z,1006.8
2018-04-16T11:46:20.426Z,1006.8
2018-04-16T11:47:22.031Z,1006.7
2018-04-16T11:48:23.993Z,1006.7
2018-04-16T11:49:25.793Z,1006.8
2018-04-16T11:50:27.563Z,1006.7
2018-04-16T11:51:29.341Z,1006.5
2018-04-16T11:52:31.151Z,1006.5
2018-04-16T11:53:33.038Z,1006.5
2018-04-16T11:54:34.793Z,1006.5
2018-04-16T11:55:36.502Z,1006.6
2018-04-16T11:56:38.228Z,1006.8
2018-04-16T11:57:39.922Z,1006.9
2018-04-16T11:58:41.807Z,1006.8
2018-04-16T11:59:43.559Z,1006.8
2018-04-16T12:00:45.301Z,1006.7
2018-04-16T12:01:47.074Z,1006.7
2018-04-16T12:02:48.849Z,1006.7
2018-04-16T12:03:50.548Z,1006.6
2018-04-16T12:04:52.406Z,1006.6
2018-04-16T12:05:54.105Z,1006.6
2018-04-16T12:06:55.815Z,1006.6
2018-04-16T12:07:57.557Z,1006.8
2018-04-16T12:08:59.360Z,1006.7
2018-04-16T12:10:01.102Z,1006.8
2018-04-16T12:11:02.894Z,1006.8
2018-04-16T12:12:04.861Z,1007.0
2018-04-16T12:13:06.546Z,1007.1
2018-04-16T12:14:08.340Z,1007.0
2018-04-16T12:15:10.339Z,1007.0
2018-04-16T12:16:12.083Z,1007.0
2018-04-16T12:17:13.943Z,1007.0
2018-04-16T12:18:15.684Z,1006.9
2018-04-16T12:19:17.371Z,1006.7
2018-04-16T12:20:19.236Z,1006.8
2018-04-16T12:21:20.999Z,1006.6
2018-04-16T12:22:22.718Z,1006.6
2018-04-16T12:23:24.425Z,1006.7
2018-04-16T12:24:26.314Z,1006.7
2018-04-16T12:25:28.121Z,1006.7
2018-04-16T12:26:29.846Z,1006.6
2018-04-16T12:27:31.629Z,1006.7
2018-04-16T12:28:33.657Z,1006.6
2018-04-16T12:29:35.439Z,1006.7
2018-04-16T12:30:37.186Z,1006.7
2018-04-16T12:31:38.880Z,1007.0
2018-04-16T12:32:40.623Z,1006.9
2018-04-16T12:33:42.348Z,1006.9
2018-04-16T12:34:44.131Z,1007.1
2018-04-16T12:35:45.924Z,1007.0
2018-04-16T12:36:47.675Z,1007.0
2018-04-16T12:37:49.425Z,1006.8
2018-04-16T12:38:51.233Z,1006.8
2018-04-16T12:39:53.033Z,1006.9
2018-04-16T12:40:55.210Z,1006.8
2018-04-16T12:41:57.054Z,1006.9
2018-04-16T12:42:58.716Z,1007.0
2018-04-16T12:44:00.384Z,1007.1
2018-04-16T12:45:02.141Z,1007.1
2018-04-16T12:46:03.786Z,1007.1
2018-04-16T12:47:05.499Z,1007.0
2018-04-16T12:48:07.313Z,1006.9
2018-04-16T12:49:09.096Z,1006.9
2018-04-16T12:50:10.876Z,1006.8
2018-04-16T12:51:13.007Z,1007.0